Time;durP1;ratioP1;P1;durP2;ratioP2;P2;SDS_P1;SDS_P2;PMS_P1;PMS_P2;Temp;Humidity;BMP_temperature;BMP_pressure;BME280_temperature;BME280_humidity;BME280_pressure;Samples;Min_cycle;Max_cycle;Signal;HPM_P1;HPM_P2
2022/10/04 00:02:15;;;;;;;;;;;358.60;2329.60;;;;;;5090889;28;19981;-61
2022/10/04 00:04:43;;;;;;;;;;;358.60;2329.60;;;;;;5090845;28;20266;-61
2022/10/04 00:07:12;;;;;;;;;;;358.60;2329.60;;;;;;5090801;28;19924;-61
2022/10/04 00:09:44;;;;;;;;;;;358.60;2329.60;;;;;;5090732;28;19912;-61
2022/10/04 00:12:18;;;;;;;;;;;358.60;2329.60;;;;;;5090700;28;20275;-61
2022/10/04 00:14:44;;;;;;;;;;;358.50;2329.60;;;;;;5090825;28;20006;-61
2022/10/04 00:17:11;;;;;;;;;;;358.50;2329.60;;;;;;5090768;28;20403;-59
2022/10/04 00:19:45;;;;;;;;;;;358.50;2329.60;;;;;;5090271;28;20270;-61
2022/10/04 00:22:13;;;;;;;;;;;358.50;2329.60;;;;;;5090567;28;19908;-60
2022/10/04 00:24:58;;;;;;;;;;;358.40;2329.60;;;;;;5090754;28;19947;-62
2022/10/04 00:27:25;;;;;;;;;;;358.40;2329.60;;;;;;5090621;28;20328;-61
2022/10/04 00:30:03;;;;;;;;;;;358.40;2329.60;;;;;;5090615;28;19948;-61
2022/10/04 00:32:28;;;;;;;;;;;333.70;2329.60;;;;;;5090651;28;19923;-61
2022/10/04 00:34:54;;;;;;;;;;;333.60;2329.60;;;;;;5090649;28;20273;-61
2022/10/04 00:37:21;;;;;;;;;;;333.60;2329.60;;;;;;5090710;28;19916;-61
2022/10/04 00:39:56;;;;;;;;;;;333.60;2329.60;;;;;;5090551;28;19922;-61
2022/10/04 00:42:21;;;;;;;;;;;333.60;2329.60;;;;;;5090382;28;19933;-61
2022/10/04 00:44:57;;;;;;;;;;;333.50;2329.60;;;;;;5090658;28;19908;-61
2022/10/04 00:47:30;;;;;;;;;;;333.40;2329.60;;;;;;5090505;28;19908;-61
2022/10/04 00:50:16;;;;;;;;;;;333.30;2329.60;;;;;;5090624;28;20006;-61
2022/10/04 00:52:44;;;;;;;;;;;333.30;2329.60;;;;;;5089988;28;19916;-61
2022/10/04 00:55:16;;;;;;;;;;;333.30;2329.60;;;;;;5090348;28;19908;-61
2022/10/04 00:57:44;;;;;;;;;;;333.20;2329.60;;;;;;5090422;28;19908;-61
2022/10/04 01:00:12;;;;;;;;;;;333.20;2329.60;;;;;;5090212;28;19965;-61
2022/10/04 01:02:48;;;;;;;;;;;333.10;2329.60;;;;;;5090401;28;19910;-61
2022/10/04 01:05:13;;;;;;;;;;;333.10;2329.60;;;;;;5090231;28;20011;-61
2022/10/04 01:07:44;;;;;;;;;;;333.10;2329.60;;;;;;5090401;28;20361;-61
2022/10/04 01:10:13;;;;;;;;;;;333.10;2329.60;;;;;;5090124;28;19908;-60
2022/10/04 01:12:43;;;;;;;;;;;333.00;2329.60;;;;;;5090211;28;19916;-61
2022/10/04 01:15:13;;;;;;;;;;;332.90;2329.60;;;;;;5090284;28;20042;-61
2022/10/04 01:17:39;;;;;;;;;;;332.90;2329.60;;;;;;5090372;28;20326;-62
2022/10/04 01:20:24;;;;;;;;;;;332.80;2329.60;;;;;;5090406;28;19908;-60
2022/10/04 01:22:50;;;;;;;;;;;332.80;2329.60;;;;;;5089979;28;20262;-60
2022/10/04 01:25:34;;;;;;;;;;;308.10;2304.00;;;;;;5090155;28;19923;-60
2022/10/04 01:27:59;;;;;;;;;;;308.00;2304.00;;;;;;5090167;28;19919;-61
2022/10/04 01:30:25;;;;;;;;;;;308.00;2304.00;;;;;;5090126;28;19908;-60
2022/10/04 01:32:51;;;;;;;;;;;308.10;2304.00;;;;;;5093301;28;19912;-61
2022/10/04 01:35:19;;;;;;;;;;;308.00;2304.00;;;;;;5093863;28;19916;-60
2022/10/04 01:37:44;;;;;;;;;;;308.00;2304.00;;;;;;5093708;28;19994;-60
2022/10/04 01:40:10;;;;;;;;;;;308.00;2304.00;;;;;;5093379;28;20349;-60
2022/10/04 01:42:40;;;;;;;;;;;308.00;2304.00;;;;;;5093697;28;20262;-59
2022/10/04 01:45:09;;;;;;;;;;;308.10;2304.00;;;;;;5093783;28;19916;-60
2022/10/04 01:47:37;;;;;;;;;;;308.10;2304.00;;;;;;5093483;28;19912;-61
2022/10/04 01:50:07;;;;;;;;;;;308.10;2304.00;;;;;;5093223;28;19915;-61
2022/10/04 01:52:34;;;;;;;;;;;308.00;2304.00;;;;;;5093182;28;20003;-60
2022/10/04 01:55:01;;;;;;;;;;;308.00;2304.00;;;;;;5093248;28;19963;-61
2022/10/04 01:57:33;;;;;;;;;;;308.00;2304.00;;;;;;5093431;28;19989;-60
2022/10/04 02:00:02;;;;;;;;;;;308.00;2304.00;;;;;;5093186;28;20370;-60
2022/10/04 02:02:42;;;;;;;;;;;308.10;2304.00;;;;;;5093371;28;19937;-61
2022/10/04 02:05:10;;;;;;;;;;;308.10;2304.00;;;;;;5093005;28;19931;-60
2022/10/04 02:07:38;;;;;;;;;;;308.10;2304.00;;;;;;5093200;28;19920;-61
2022/10/04 02:10:05;;;;;;;;;;;332.80;2329.60;;;;;;5093005;28;19908;-61
2022/10/04 02:12:32;;;;;;;;;;;332.80;2329.60;;;;;;5092923;28;19923;-60
2022/10/04 02:15:00;;;;;;;;;;;332.80;2329.60;;;;;;5093063;28;19908;-61
2022/10/04 02:17:28;;;;;;;;;;;332.80;2329.60;;;;;;5093054;28;19909;-60
2022/10/04 02:19:53;;;;;;;;;;;332.80;2329.60;;;;;;5092904;28;19922;-60
2022/10/04 02:22:21;;;;;;;;;;;308.10;2304.00;;;;;;5092660;28;20002;-61
2022/10/04 02:24:47;;;;;;;;;;;308.10;2304.00;;;;;;5092847;28;19944;-60
2022/10/04 02:27:13;;;;;;;;;;;308.00;2304.00;;;;;;5092442;28;19912;-60
2022/10/04 02:29:39;;;;;;;;;;;308.00;2304.00;;;;;;5092585;28;20427;-61
2022/10/04 02:34:50;;;;;;;;;;;308.00;2304.00;;;;;;5092374;28;19964;-61
2022/10/04 02:37:16;;;;;;;;;;;308.00;2304.00;;;;;;5092575;28;19916;-61
2022/10/04 02:39:47;;;;;;;;;;;308.00;2304.00;;;;;;5092481;28;19915;-60
2022/10/04 02:42:20;;;;;;;;;;;308.10;2304.00;;;;;;5092168;28;20364;-60
2022/10/04 02:44:51;;;;;;;;;;;308.10;2304.00;;;;;;5092175;28;19908;-59
2022/10/04 02:47:22;;;;;;;;;;;308.10;2304.00;;;;;;5092414;28;19908;-61
2022/10/04 02:49:52;;;;;;;;;;;332.80;2329.60;;;;;;5092397;28;20374;-60
2022/10/04 02:52:38;;;;;;;;;;;332.80;2329.60;;;;;;5092366;28;19923;-60
2022/10/04 02:55:06;;;;;;;;;;;332.80;2329.60;;;;;;5092244;28;19908;-61
2022/10/04 02:57:33;;;;;;;;;;;332.90;2329.60;;;;;;5091920;28;19953;-60
2022/10/04 03:00:18;;;;;;;;;;;332.90;2329.60;;;;;;5092031;28;19961;-62
2022/10/04 03:03:16;;;;;;;;;;;332.90;2329.60;;;;;;5092101;28;19908;-60
2022/10/04 03:05:51;;;;;;;;;;;332.90;2329.60;;;;;;5069289;28;19920;-60
2022/10/04 03:08:17;;;;;;;;;;;332.90;2329.60;;;;;;5069676;28;19943;-60
2022/10/04 03:10:43;;;;;;;;;;;332.90;2329.60;;;;;;5069421;28;19964;-61
2022/10/04 03:13:09;;;;;;;;;;;332.90;2329.60;;;;;;5069257;28;19912;-61
2022/10/04 03:15:36;;;;;;;;;;;333.00;2329.60;;;;;;5069501;28;19912;-60
2022/10/04 03:18:02;;;;;;;;;;;333.00;2329.60;;;;;;5069222;28;19919;-60
2022/10/04 03:20:27;;;;;;;;;;;332.90;2329.60;;;;;;5069539;28;19908;-61
2022/10/04 03:22:54;;;;;;;;;;;332.90;2329.60;;;;;;5069112;28;19908;-60
2022/10/04 03:25:22;;;;;;;;;;;332.90;2329.60;;;;;;5068984;28;19938;-60
2022/10/04 03:27:49;;;;;;;;;;;332.90;2329.60;;;;;;5068985;28;20255;-61
2022/10/04 03:30:15;;;;;;;;;;;332.80;2329.60;;;;;;5069155;28;19908;-60
2022/10/04 03:32:42;;;;;;;;;;;332.80;2329.60;;;;;;5068692;28;19917;-61
2022/10/04 03:35:16;;;;;;;;;;;332.80;2329.60;;;;;;5069015;28;19912;-61
2022/10/04 03:37:42;;;;;;;;;;;332.80;2329.60;;;;;;5068724;28;19909;-61
2022/10/04 03:40:08;;;;;;;;;;;332.80;2329.60;;;;;;5069837;28;19916;-60
2022/10/04 03:42:35;;;;;;;;;;;332.80;2329.60;;;;;;5091238;28;19908;-60
2022/10/04 03:45:02;;;;;;;;;;;332.80;2329.60;;;;;;5091138;28;19908;-60
2022/10/04 03:47:32;;;;;;;;;;;332.80;2329.60;;;;;;5091421;28;20373;-61
2022/10/04 03:50:01;;;;;;;;;;;332.80;2329.60;;;;;;5091387;28;19994;-60
2022/10/04 03:52:30;;;;;;;;;;;332.80;2329.60;;;;;;5091242;28;20741;-59
2022/10/04 03:54:58;;;;;;;;;;;332.80;2329.60;;;;;;5090677;28;20344;-60
2022/10/04 03:57:24;;;;;;;;;;;332.80;2329.60;;;;;;5091070;28;20371;-60
2022/10/04 03:59:49;;;;;;;;;;;332.80;2329.60;;;;;;5090862;28;19959;-61
2022/10/04 04:02:24;;;;;;;;;;;332.80;2329.60;;;;;;5091016;28;20002;-61
2022/10/04 04:05:09;;;;;;;;;;;332.80;2329.60;;;;;;5090473;28;19947;-61
2022/10/04 04:07:40;;;;;;;;;;;308.10;2304.00;;;;;;5090987;28;19932;-60
2022/10/04 04:10:15;;;;;;;;;;;308.10;2304.00;;;;;;5090812;28;19908;-61
2022/10/04 04:12:59;;;;;;;;;;;308.10;2304.00;;;;;;5090648;28;20350;-60
2022/10/04 04:15:29;;;;;;;;;;;308.00;2304.00;;;;;;5091070;28;19969;-61
2022/10/04 04:17:56;;;;;;;;;;;308.00;2304.00;;;;;;5091045;28;20270;-60
2022/10/04 04:20:28;;;;;;;;;;;307.90;2304.00;;;;;;5090738;28;20371;-60
2022/10/04 04:23:09;;;;;;;;;;;307.80;2304.00;;;;;;5090917;28;19955;-61
2022/10/04 04:25:37;;;;;;;;;;;307.80;2304.00;;;;;;5090668;28;20010;-61
2022/10/04 04:28:18;;;;;;;;;;;307.80;2304.00;;;;;;5090515;28;19922;-61
2022/10/04 04:30:45;;;;;;;;;;;307.80;2304.00;;;;;;5090542;28;19908;-60
2022/10/04 04:33:15;;;;;;;;;;;307.80;2304.00;;;;;;5090545;28;19939;-61
2022/10/04 04:35:41;;;;;;;;;;;307.80;2304.00;;;;;;5090812;28;19923;-62
2022/10/04 04:38:13;;;;;;;;;;;307.80;2304.00;;;;;;5090820;28;19987;-61
2022/10/04 04:40:39;;;;;;;;;;;307.90;2304.00;;;;;;5090098;28;20337;-61
2022/10/04 04:43:05;;;;;;;;;;;308.00;2304.00;;;;;;5090682;28;19955;-60
2022/10/04 04:45:32;;;;;;;;;;;308.00;2304.00;;;;;;5090449;28;19908;-61
2022/10/04 04:47:58;;;;;;;;;;;308.00;2304.00;;;;;;5090712;28;20439;-61
2022/10/04 04:50:24;;;;;;;;;;;308.00;2304.00;;;;;;5090732;28;20006;-61
2022/10/04 04:52:49;;;;;;;;;;;308.10;2304.00;;;;;;5090251;28;20015;-61
2022/10/04 04:55:18;;;;;;;;;;;308.10;2304.00;;;;;;5090624;28;20037;-60
2022/10/04 04:57:44;;;;;;;;;;;332.80;2329.60;;;;;;5090265;28;19912;-60
2022/10/04 05:00:15;;;;;;;;;;;332.90;2329.60;;;;;;5089161;28;19919;-60
2022/10/04 05:02:49;;;;;;;;;;;332.90;2329.60;;;;;;5090065;28;19918;-61
2022/10/04 05:05:25;;;;;;;;;;;332.90;2329.60;;;;;;5089815;28;20015;-61
2022/10/04 05:08:02;;;;;;;;;;;333.00;2329.60;;;;;;5093794;28;19923;-61
2022/10/04 05:10:32;;;;;;;;;;;333.00;2329.60;;;;;;5094453;28;19912;-61
2022/10/04 05:13:03;;;;;;;;;;;333.20;2329.60;;;;;;5094034;28;19919;-61
2022/10/04 05:15:33;;;;;;;;;;;333.20;2329.60;;;;;;5094428;28;19916;-61
2022/10/04 05:17:59;;;;;;;;;;;333.20;2329.60;;;;;;5094092;28;20022;-61
2022/10/04 05:20:25;;;;;;;;;;;333.20;2329.60;;;;;;5094059;28;19952;-60
2022/10/04 05:22:51;;;;;;;;;;;333.30;2329.60;;;;;;5093879;28;19908;-61
2022/10/04 05:25:43;;;;;;;;;;;333.40;2329.60;;;;;;5093979;28;20010;-61
2022/10/04 05:28:10;;;;;;;;;;;333.50;2329.60;;;;;;5092435;28;19943;-61
2022/10/04 05:30:35;;;;;;;;;;;333.50;2329.60;;;;;;5093942;28;19908;-60
2022/10/04 05:33:01;;;;;;;;;;;333.60;2329.60;;;;;;5093488;28;19912;-61
2022/10/04 05:35:27;;;;;;;;;;;333.60;2329.60;;;;;;5094044;28;19920;-61
2022/10/04 05:38:11;;;;;;;;;;;333.70;2329.60;;;;;;5093562;28;19916;-61
2022/10/04 05:40:37;;;;;;;;;;;333.70;2329.60;;;;;;5093832;28;20345;-61
2022/10/04 05:43:20;;;;;;;;;;;333.70;2329.60;;;;;;5093209;28;19958;-61
2022/10/04 05:45:46;;;;;;;;;;;333.70;2329.60;;;;;;5093395;28;19916;-60
2022/10/04 05:48:12;;;;;;;;;;;333.70;2329.60;;;;;;5093325;28;19909;-60
2022/10/04 05:50:40;;;;;;;;;;;358.40;2329.60;;;;;;5093213;28;19908;-60
2022/10/04 05:53:15;;;;;;;;;;;358.50;2329.60;;;;;;5093526;28;19962;-61
2022/10/04 05:55:57;;;;;;;;;;;358.50;2329.60;;;;;;5093150;28;19961;-61
2022/10/04 05:58:31;;;;;;;;;;;358.60;2329.60;;;;;;5093029;28;19912;-62
2022/10/04 06:01:16;;;;;;;;;;;358.70;2329.60;;;;;;5093520;28;19916;-60
2022/10/04 06:03:48;;;;;;;;;;;359.00;2329.60;;;;;;5092976;28;19915;-60
2022/10/04 06:06:21;;;;;;;;;;;359.10;2329.60;;;;;;5092841;28;19931;-60
2022/10/04 06:09:05;;;;;;;;;;;359.20;2329.60;;;;;;5091804;28;19912;-61
2022/10/04 06:11:49;;;;;;;;;;;384.10;2329.60;;;;;;5091036;28;19970;-59
2022/10/04 06:14:20;;;;;;;;;;;384.30;2329.60;;;;;;5091459;28;19959;-60
2022/10/04 06:16:48;;;;;;;;;;;384.70;2329.60;;;;;;5091494;28;19908;-59
2022/10/04 06:19:17;;;;;;;;;;;409.70;2355.20;;;;;;5090357;28;20277;-61
2022/10/04 06:22:05;;;;;;;;;;;410.30;2355.20;;;;;;5090799;28;19934;-60
2022/10/04 06:24:36;;;;;;;;;;;487.20;2227.20;;;;;;5090876;28;19923;-60
2022/10/04 06:27:07;;;;;;;;;;;486.90;2124.80;;;;;;5090939;28;20006;-60
2022/10/04 06:29:37;;;;;;;;;;;486.40;2176.00;;;;;;5090931;28;19912;-62
2022/10/04 06:32:27;;;;;;;;;;;461.20;2201.60;;;;;;5090802;28;19917;-61
2022/10/04 06:35:11;;;;;;;;;;;460.90;2252.80;;;;;;5092653;28;20007;-61
2022/10/04 06:37:42;;;;;;;;;;;460.90;2252.80;;;;;;5092519;28;19913;-61
2022/10/04 06:40:17;;;;;;;;;;;436.10;2278.40;;;;;;5092461;28;20358;-61
2022/10/04 06:42:55;;;;;;;;;;;460.90;2252.80;;;;;;5092307;28;19909;-62
2022/10/04 06:45:32;;;;;;;;;;;461.70;2176.00;;;;;;5092192;28;19922;-62
2022/10/04 06:48:06;;;;;;;;;;;538.20;1945.60;;;;;;5092485;28;19912;-62
2022/10/04 06:50:41;;;;;;;;;;;589.50;1766.40;;;;;;5092002;28;20007;-63
2022/10/04 06:53:15;;;;;;;;;;;614.80;1664.00;;;;;;5092228;28;19913;-61
2022/10/04 06:55:41;;;;;;;;;;;640.90;1561.60;;;;;;5092011;28;19908;-62
2022/10/04 06:58:13;;;;;;;;;;;666.00;1510.40;;;;;;5092166;28;19915;-62
2022/10/04 07:00:53;;;;;;;;;;;691.60;1484.80;;;;;;5091892;28;20425;-62
2022/10/04 07:03:25;;;;;;;;;;;691.60;1459.20;;;;;;5091994;28;20289;-62
2022/10/04 07:05:55;;;;;;;;;;;716.80;1433.60;;;;;;5091802;28;19920;-62
2022/10/04 07:08:40;;;;;;;;;;;717.60;1408.00;;;;;;5091781;28;19954;-62
2022/10/04 07:11:17;;;;;;;;;;;743.10;1331.20;;;;;;5091740;28;19919;-62
2022/10/04 07:13:43;;;;;;;;;;;793.60;1280.00;;;;;;5091817;28;19912;-60
2022/10/04 07:16:22;;;;;;;;;;;692.10;1331.20;;;;;;5091831;28;19908;-60
2022/10/04 07:19:09;;;;;;;;;;;665.60;1459.20;;;;;;5092060;28;19909;-61
2022/10/04 07:21:49;;;;;;;;;;;614.70;1536.00;;;;;;5091796;28;20350;-62
2022/10/04 07:24:19;;;;;;;;;;;589.40;1612.80;;;;;;5091588;28;19908;-60
2022/10/04 07:26:46;;;;;;;;;;;564.10;1664.00;;;;;;5091611;28;19915;-60
2022/10/04 07:29:32;;;;;;;;;;;563.50;1689.60;;;;;;5091368;28;19989;-60
2022/10/04 07:32:01;;;;;;;;;;;563.30;1715.20;;;;;;5091396;28;19923;-60
2022/10/04 07:34:29;;;;;;;;;;;538.30;1715.20;;;;;;5091464;28;19963;-60
2022/10/04 07:37:06;;;;;;;;;;;538.50;1740.80;;;;;;5091525;28;19912;-60
2022/10/04 07:39:52;;;;;;;;;;;538.20;1740.80;;;;;;5091482;28;19914;-63
2022/10/04 07:42:20;;;;;;;;;;;537.90;1766.40;;;;;;5068798;28;19951;-60
2022/10/04 07:44:53;;;;;;;;;;;512.90;1766.40;;;;;;5068882;28;20034;-60
2022/10/04 07:47:20;;;;;;;;;;;512.90;1792.00;;;;;;5068945;28;20454;-60
2022/10/04 07:49:49;;;;;;;;;;;537.60;1792.00;;;;;;5068877;28;19912;-60
2022/10/04 07:52:23;;;;;;;;;;;537.60;1792.00;;;;;;5068532;28;19962;-60
2022/10/04 07:55:01;;;;;;;;;;;538.50;1766.40;;;;;;5068683;28;19951;-59
2022/10/04 07:57:29;;;;;;;;;;;538.50;1715.20;;;;;;5068796;28;19908;-60
2022/10/04 07:59:55;;;;;;;;;;;538.50;1740.80;;;;;;5068637;28;19908;-60
2022/10/04 08:02:23;;;;;;;;;;;538.50;1740.80;;;;;;5068813;28;19962;-60
2022/10/04 08:05:12;;;;;;;;;;;538.50;1740.80;;;;;;5068558;28;20402;-59
2022/10/04 08:07:46;;;;;;;;;;;538.40;1740.80;;;;;;5057963;28;19987;-60
2022/10/04 08:10:22;;;;;;;;;;;563.60;1740.80;;;;;;5068627;28;19909;-60
2022/10/04 08:13:17;;;;;;;;;;;563.30;1766.40;;;;;;5068451;28;20366;-60
2022/10/04 08:15:43;;;;;;;;;;;589.00;1689.60;;;;;;4989058;28;20426;-60
2022/10/04 08:18:21;;;;;;;;;;;614.40;1612.80;;;;;;4973078;28;20334;-61
2022/10/04 08:20:48;;;;;;;;;;;589.70;1664.00;;;;;;5028597;28;19951;-61
2022/10/04 08:23:23;;;;;;;;;;;665.60;1510.40;;;;;;5028544;28;19909;-61
2022/10/04 08:26:06;;;;;;;;;;;666.30;1484.80;;;;;;5028415;28;19909;-61
2022/10/04 08:31:42;;;;;;;;;;;743.00;1356.80;;;;;;5028569;28;19956;-59
2022/10/04 08:34:27;;;;;;;;;;;768.10;1356.80;;;;;;4989120;28;19918;-61
2022/10/04 08:37:00;;;;;;;;;;;742.40;1382.40;;;;;;4988936;28;19939;-61
2022/10/04 08:39:42;;;;;;;;;;;691.60;1382.40;;;;;;4989108;28;19910;-61
2022/10/04 08:42:14;;;;;;;;;;;640.40;1484.80;;;;;;4991516;28;19916;-61
2022/10/04 08:44:49;;;;;;;;;;;691.30;1408.00;;;;;;4992941;28;19910;-61
2022/10/04 08:47:33;;;;;;;;;;;717.10;1382.40;;;;;;4993074;28;19910;-61
2022/10/04 08:50:01;;;;;;;;;;;742.60;1356.80;;;;;;4993164;28;19914;-61
2022/10/04 08:52:45;;;;;;;;;;;742.70;1331.20;;;;;;5031403;28;19917;-62
2022/10/04 08:55:33;;;;;;;;;;;742.40;1382.40;;;;;;5052107;28;20008;-60
2022/10/04 08:58:00;;;;;;;;;;;716.80;1382.40;;;;;;5052057;28;19974;-61
2022/10/04 09:00:29;;;;;;;;;;;665.80;1459.20;;;;;;5052238;28;19909;-60
2022/10/04 09:02:54;;;;;;;;;;;640.00;1510.40;;;;;;5051978;28;20326;-60
2022/10/04 09:05:22;;;;;;;;;;;614.90;1536.00;;;;;;5051655;28;19917;-61
2022/10/04 09:07:48;;;;;;;;;;;614.80;1536.00;;;;;;5051928;28;19920;-59
2022/10/04 09:10:16;;;;;;;;;;;614.90;1536.00;;;;;;5057363;28;19913;-60
2022/10/04 09:12:43;;;;;;;;;;;614.50;1587.20;;;;;;5093903;28;20425;-60
2022/10/04 09:15:29;;;;;;;;;;;589.20;1638.40;;;;;;5094220;28;19914;-60
2022/10/04 09:17:55;;;;;;;;;;;564.10;1689.60;;;;;;5094294;28;19916;-60
2022/10/04 09:20:43;;;;;;;;;;;538.50;1689.60;;;;;;5094131;28;19908;-62
2022/10/04 09:23:21;;;;;;;;;;;537.70;1740.80;;;;;;5071445;28;19955;-60
2022/10/04 09:25:53;;;;;;;;;;;512.20;1792.00;;;;;;5071638;28;19946;-62
2022/10/04 09:28:27;;;;;;;;;;;512.10;1817.60;;;;;;5071537;28;19908;-62
2022/10/04 09:31:17;;;;;;;;;;;512.20;1843.20;;;;;;5071254;28;19948;-62
2022/10/04 09:33:51;;;;;;;;;;;512.30;1817.60;;;;;;5071105;28;19923;-62
2022/10/04 09:36:39;;;;;;;;;;;537.60;1792.00;;;;;;5071457;28;19912;-62
2022/10/04 09:39:24;;;;;;;;;;;538.00;1740.80;;;;;;5071362;28;20357;-62
2022/10/04 09:41:51;;;;;;;;;;;512.90;1740.80;;;;;;5071170;28;19913;-62
2022/10/04 09:44:17;;;;;;;;;;;512.90;1766.40;;;;;;5071221;28;19995;-62
2022/10/04 09:46:45;;;;;;;;;;;512.90;1766.40;;;;;;5070887;28;19909;-62
2022/10/04 09:49:17;;;;;;;;;;;537.60;1792.00;;;;;;5070944;28;19909;-62
2022/10/04 09:51:49;;;;;;;;;;;538.00;1766.40;;;;;;5070809;28;19919;-62
2022/10/04 09:54:33;;;;;;;;;;;538.00;1792.00;;;;;;5069989;28;19908;-62
2022/10/04 09:57:16;;;;;;;;;;;538.20;1766.40;;;;;;5071070;28;19912;-62
2022/10/04 09:59:45;;;;;;;;;;;537.80;1792.00;;;;;;5077726;28;19908;-62
2022/10/04 10:02:27;;;;;;;;;;;537.80;1817.60;;;;;;5093265;28;19908;-62
2022/10/04 10:05:11;;;;;;;;;;;512.90;1817.60;;;;;;5092868;28;19912;-61
2022/10/04 10:07:44;;;;;;;;;;;512.60;1792.00;;;;;;5093244;28;20357;-62
2022/10/04 10:13:39;;;;;;;;;;;486.80;1894.40;;;;;;5093172;28;19923;-61
2022/10/04 10:16:04;;;;;;;;;;;486.50;1945.60;;;;;;5093021;28;20251;-62
2022/10/04 10:18:33;;;;;;;;;;;486.50;1971.20;;;;;;5092766;28;20403;-61
2022/10/04 10:21:15;;;;;;;;;;;486.60;1971.20;;;;;;5093034;28;20091;-61
2022/10/04 10:23:49;;;;;;;;;;;486.70;1945.60;;;;;;5092700;28;20282;-61
2022/10/04 10:26:21;;;;;;;;;;;486.80;1971.20;;;;;;5092764;28;19908;-61
2022/10/04 10:28:56;;;;;;;;;;;512.20;1920.00;;;;;;5092634;28;19912;-60
2022/10/04 10:31:25;;;;;;;;;;;512.70;1868.80;;;;;;5092447;28;19973;-61
2022/10/04 10:33:50;;;;;;;;;;;537.80;1843.20;;;;;;5092381;28;20385;-61
2022/10/04 10:36:31;;;;;;;;;;;538.10;1843.20;;;;;;5092630;28;19923;-61
2022/10/04 10:39:15;;;;;;;;;;;537.60;1894.40;;;;;;5092786;28;19969;-60
2022/10/04 10:41:43;;;;;;;;;;;512.70;1868.80;;;;;;5092288;28;19947;-61
2022/10/04 10:44:09;;;;;;;;;;;512.40;1894.40;;;;;;5092357;28;19963;-61
2022/10/04 10:47:10;;;;;;;;;;;512.10;1894.40;;;;;;5092476;28;19908;-61
2022/10/04 10:49:36;;;;;;;;;;;512.20;1894.40;;;;;;5069977;28;19930;-61
2022/10/04 10:52:09;;;;;;;;;;;512.20;1894.40;;;;;;5087421;28;20432;-61
2022/10/04 10:54:47;;;;;;;;;;;512.10;1920.00;;;;;;5092355;28;20370;-61
2022/10/04 10:57:32;;;;;;;;;;;487.30;1920.00;;;;;;5092103;28;19909;-61
2022/10/04 11:00:16;;;;;;;;;;;512.20;1920.00;;;;;;5092437;28;19908;-60
2022/10/04 11:02:54;;;;;;;;;;;512.20;1920.00;;;;;;5091941;28;19912;-60
2022/10/04 11:05:29;;;;;;;;;;;512.30;1894.40;;;;;;5091728;28;19917;-61
2022/10/04 11:08:13;;;;;;;;;;;512.50;1920.00;;;;;;5092239;28;19958;-61
2022/10/04 11:11:02;;;;;;;;;;;512.60;1843.20;;;;;;5091957;28;19908;-61
2022/10/04 11:13:47;;;;;;;;;;;512.70;1868.80;;;;;;5092018;28;20807;-61
2022/10/04 11:16:33;;;;;;;;;;;512.90;1868.80;;;;;;5092072;28;19908;-61
2022/10/04 11:19:17;;;;;;;;;;;512.70;1868.80;;;;;;5091814;28;20293;-61
2022/10/04 11:21:51;;;;;;;;;;;512.70;1843.20;;;;;;5091552;28;19940;-60
2022/10/04 11:24:17;;;;;;;;;;;512.20;1894.40;;;;;;5092106;28;19915;-61
2022/10/04 11:27:02;;;;;;;;;;;487.10;1920.00;;;;;;5091475;28;19908;-61
2022/10/04 11:29:31;;;;;;;;;;;487.00;1920.00;;;;;;5091491;28;19908;-61
2022/10/04 11:31:59;;;;;;;;;;;486.60;1971.20;;;;;;5091670;28;20013;-61
2022/10/04 11:34:38;;;;;;;;;;;486.80;1996.80;;;;;;5091560;28;19912;-61
2022/10/04 11:37:22;;;;;;;;;;;487.00;1945.60;;;;;;5091342;28;20373;-61
2022/10/04 11:39:48;;;;;;;;;;;487.10;1920.00;;;;;;5091561;28;19935;-61
2022/10/04 11:42:32;;;;;;;;;;;487.20;1920.00;;;;;;5090868;28;20741;-61
2022/10/04 11:45:12;;;;;;;;;;;487.00;1945.60;;;;;;5089554;28;19919;-61
2022/10/04 11:47:40;;;;;;;;;;;487.00;1920.00;;;;;;5091276;28;20419;-61
2022/10/04 11:50:24;;;;;;;;;;;487.00;1945.60;;;;;;5091276;28;20258;-61
2022/10/04 11:53:04;;;;;;;;;;;486.80;1945.60;;;;;;5090888;28;20552;-60
2022/10/04 11:55:41;;;;;;;;;;;486.80;1971.20;;;;;;5091069;28;19915;-61
2022/10/04 11:58:15;;;;;;;;;;;486.80;1996.80;;;;;;5090964;28;19908;-61
2022/10/04 12:00:49;;;;;;;;;;;487.00;1971.20;;;;;;5090777;28;19908;-61
2022/10/04 12:03:20;;;;;;;;;;;487.00;1971.20;;;;;;5091007;28;19947;-60
2022/10/04 12:05:47;;;;;;;;;;;487.00;1945.60;;;;;;5090693;28;19920;-61
2022/10/04 12:08:30;;;;;;;;;;;487.00;1945.60;;;;;;5090905;28;19961;-60
2022/10/04 12:11:22;;;;;;;;;;;486.80;1920.00;;;;;;5090931;28;19925;-61
2022/10/04 12:13:55;;;;;;;;;;;486.80;1945.60;;;;;;5090785;28;19955;-60
2022/10/04 12:16:35;;;;;;;;;;;486.70;1945.60;;;;;;5087726;28;19919;-61
2022/10/04 12:19:07;;;;;;;;;;;487.00;1945.60;;;;;;5089091;28;20010;-60
2022/10/04 12:21:39;;;;;;;;;;;486.90;1945.60;;;;;;5088946;28;19914;-59
2022/10/04 12:24:17;;;;;;;;;;;487.10;1920.00;;;;;;5089175;28;19908;-61
2022/10/04 12:26:59;;;;;;;;;;;487.30;1920.00;;;;;;5088876;28;19912;-61
2022/10/04 12:29:26;;;;;;;;;;;487.30;1894.40;;;;;;5088535;28;19909;-61
2022/10/04 12:32:10;;;;;;;;;;;512.30;1920.00;;;;;;5088649;28;19963;-60
2022/10/04 12:34:54;;;;;;;;;;;512.30;1894.40;;;;;;5088929;28;20338;-60
2022/10/04 12:37:23;;;;;;;;;;;512.60;1843.20;;;;;;5088778;28;19923;-61
2022/10/04 12:39:48;;;;;;;;;;;512.50;1894.40;;;;;;5089092;28;19912;-60
2022/10/04 12:42:39;;;;;;;;;;;512.40;1868.80;;;;;;5088341;28;20362;-62
2022/10/04 12:45:04;;;;;;;;;;;512.10;1868.80;;;;;;5089265;28;19916;-60
2022/10/04 12:47:30;;;;;;;;;;;487.30;1868.80;;;;;;5088822;28;19916;-61
2022/10/04 12:50:08;;;;;;;;;;;512.10;1868.80;;;;;;5088897;28;20354;-61
2022/10/04 12:52:51;;;;;;;;;;;487.30;1868.80;;;;;;5088491;28;19927;-62
2022/10/04 12:55:23;;;;;;;;;;;487.20;1868.80;;;;;;5088603;28;19907;-61
2022/10/04 12:57:54;;;;;;;;;;;487.00;1868.80;;;;;;5088875;28;20127;-61
2022/10/04 13:00:21;;;;;;;;;;;486.90;1868.80;;;;;;5088448;28;20386;-60
2022/10/04 13:03:06;;;;;;;;;;;486.80;1868.80;;;;;;5088820;28;19908;-60
2022/10/04 13:05:45;;;;;;;;;;;486.70;1920.00;;;;;;5088340;28;19920;-61
2022/10/04 13:08:29;;;;;;;;;;;486.50;1945.60;;;;;;5088226;28;19927;-61
2022/10/04 13:11:04;;;;;;;;;;;486.50;1945.60;;;;;;5088512;28;20003;-60
2022/10/04 13:13:48;;;;;;;;;;;486.40;1971.20;;;;;;5088630;28;19989;-61
2022/10/04 13:16:23;;;;;;;;;;;461.70;1996.80;;;;;;5088846;28;19909;-61
2022/10/04 13:19:07;;;;;;;;;;;486.50;1971.20;;;;;;5088663;28;20404;-60
2022/10/04 13:21:35;;;;;;;;;;;486.50;1971.20;;;;;;5088076;28;19908;-60
2022/10/04 13:24:10;;;;;;;;;;;486.70;1971.20;;;;;;5088529;28;19912;-61
2022/10/04 13:26:45;;;;;;;;;;;486.60;1945.60;;;;;;5088711;28;20377;-60
2022/10/04 13:29:29;;;;;;;;;;;486.70;1945.60;;;;;;5092244;28;19911;-60
2022/10/04 13:32:02;;;;;;;;;;;486.80;1945.60;;;;;;5092261;28;20277;-61
2022/10/04 13:34:30;;;;;;;;;;;487.00;1945.60;;;;;;5091717;28;19916;-61
2022/10/04 13:37:02;;;;;;;;;;;486.80;1971.20;;;;;;5092300;28;20294;-62
2022/10/04 13:39:27;;;;;;;;;;;486.70;1945.60;;;;;;5092228;28;19977;-60
2022/10/04 13:42:11;;;;;;;;;;;486.60;1945.60;;;;;;5092012;28;20365;-61
2022/10/04 13:44:48;;;;;;;;;;;486.70;1945.60;;;;;;5091972;28;19908;-61
2022/10/04 13:47:26;;;;;;;;;;;487.00;1920.00;;;;;;5091520;28;19915;-61
2022/10/04 13:49:52;;;;;;;;;;;486.80;1920.00;;;;;;5091735;28;19915;-61
2022/10/04 13:58:25;;;;;;;;;;;486.70;1894.40;;;;;;5091828;28;19914;-62
2022/10/04 14:01:09;;;;;;;;;;;486.40;1945.60;;;;;;5086780;28;19916;-60
2022/10/04 14:03:35;;;;;;;;;;;486.50;1945.60;;;;;;5091655;28;19916;-59
2022/10/04 14:06:10;;;;;;;;;;;486.40;1920.00;;;;;;5091480;28;19934;-61
2022/10/04 14:08:47;;;;;;;;;;;461.70;1971.20;;;;;;5091837;28;20345;-60
2022/10/04 14:11:40;;;;;;;;;;;461.70;1996.80;;;;;;5091337;28;19919;-61
2022/10/04 14:14:16;;;;;;;;;;;461.60;1971.20;;;;;;5082399;28;20348;-60
2022/10/04 14:16:57;;;;;;;;;;;461.70;1996.80;;;;;;5091383;28;20267;-61
2022/10/04 14:19:31;;;;;;;;;;;486.40;1971.20;;;;;;5091424;28;19915;-61
2022/10/04 14:22:03;;;;;;;;;;;461.60;1996.80;;;;;;5091489;28;19923;-61
2022/10/04 14:24:35;;;;;;;;;;;461.60;1996.80;;;;;;5091376;28;19955;-61
2022/10/04 14:27:03;;;;;;;;;;;461.60;1996.80;;;;;;5090847;28;19912;-61
2022/10/04 14:29:45;;;;;;;;;;;461.70;1996.80;;;;;;5091302;28;19908;-60
2022/10/04 14:32:29;;;;;;;;;;;461.60;1996.80;;;;;;5090957;28;20439;-61